sensor_id;sensor_type;location;lat;lon;timestamp;P1;durP1;ratioP1;P2;durP2;ratioP2
66485;SDS011;53303;47.476;8.084;2023-12-20T00:01:00;6.03;;;1.80;;
66485;SDS011;53303;47.476;8.084;2023-12-20T00:03:26;7.63;;;1.92;;
66485;SDS011;53303;47.476;8.084;2023-12-20T00:05:51;4.75;;;1.70;;
66485;SDS011;53303;47.476;8.084;2023-12-20T00:08:19;5.57;;;1.58;;
66485;SDS011;53303;47.476;8.084;2023-12-20T00:10:47;7.43;;;2.00;;
66485;SDS011;53303;47.476;8.084;2023-12-20T00:13:13;4.68;;;1.67;;
66485;SDS011;53303;47.476;8.084;2023-12-20T00:15:38;6.03;;;1.80;;
66485;SDS011;53303;47.476;8.084;2023-12-20T00:18:03;5.60;;;1.60;;
66485;SDS011;53303;47.476;8.084;2023-12-20T00:20:29;4.40;;;1.52;;
66485;SDS011;53303;47.476;8.084;2023-12-20T00:22:57;6.30;;;1.48;;
66485;SDS011;53303;47.476;8.084;2023-12-20T00:25:25;5.90;;;1.77;;
66485;SDS011;53303;47.476;8.084;2023-12-20T00:27:51;4.63;;;1.80;;
66485;SDS011;53303;47.476;8.084;2023-12-20T00:30:16;6.60;;;1.58;;
66485;SDS011;53303;47.476;8.084;2023-12-20T00:32:42;5.03;;;1.65;;
66485;SDS011;53303;47.476;8.084;2023-12-20T00:35:12;6.55;;;2.20;;
66485;SDS011;53303;47.476;8.084;2023-12-20T00:37:38;5.35;;;1.90;;
66485;SDS011;53303;47.476;8.084;2023-12-20T00:40:04;6.20;;;1.40;;
66485;SDS011;53303;47.476;8.084;2023-12-20T00:42:30;4.30;;;1.55;;
66485;SDS011;53303;47.476;8.084;2023-12-20T00:44:55;5.72;;;1.75;;
66485;SDS011;53303;47.476;8.084;2023-12-20T00:47:20;4.63;;;1.48;;
66485;SDS011;53303;47.476;8.084;2023-12-20T00:49:51;4.47;;;2.00;;
66485;SDS011;53303;47.476;8.084;2023-12-20T00:52:19;5.38;;;1.50;;
66485;SDS011;53303;47.476;8.084;2023-12-20T00:54:44;4.35;;;1.30;;
66485;SDS011;53303;47.476;8.084;2023-12-20T00:57:10;4.82;;;1.70;;
66485;SDS011;53303;47.476;8.084;2023-12-20T00:59:36;6.97;;;1.67;;
66485;SDS011;53303;47.476;8.084;2023-12-20T01:02:04;6.32;;;1.67;;
66485;SDS011;53303;47.476;8.084;2023-12-20T01:04:29;6.63;;;1.80;;
66485;SDS011;53303;47.476;8.084;2023-12-20T01:06:54;4.65;;;1.60;;
66485;SDS011;53303;47.476;8.084;2023-12-20T01:09:20;5.20;;;1.52;;
66485;SDS011;53303;47.476;8.084;2023-12-20T01:11:50;3.80;;;1.48;;
66485;SDS011;53303;47.476;8.084;2023-12-20T01:14:16;5.22;;;1.95;;
66485;SDS011;53303;47.476;8.084;2023-12-20T01:16:43;4.00;;;1.50;;
66485;SDS011;53303;47.476;8.084;2023-12-20T01:19:09;6.65;;;2.00;;
66485;SDS011;53303;47.476;8.084;2023-12-20T01:21:37;5.15;;;1.30;;
66485;SDS011;53303;47.476;8.084;2023-12-20T01:24:02;3.53;;;1.17;;
66485;SDS011;53303;47.476;8.084;2023-12-20T01:26:27;4.97;;;1.38;;
66485;SDS011;53303;47.476;8.084;2023-12-20T01:28:55;3.47;;;1.65;;
66485;SDS011;53303;47.476;8.084;2023-12-20T01:31:23;4.60;;;1.70;;
66485;SDS011;53303;47.476;8.084;2023-12-20T01:33:48;3.70;;;1.23;;
66485;SDS011;53303;47.476;8.084;2023-12-20T01:36:14;4.07;;;1.20;;
66485;SDS011;53303;47.476;8.084;2023-12-20T01:38:39;5.45;;;1.33;;
66485;SDS011;53303;47.476;8.084;2023-12-20T01:41:05;5.28;;;1.50;;
66485;SDS011;53303;47.476;8.084;2023-12-20T01:43:30;4.60;;;1.73;;
66485;SDS011;53303;47.476;8.084;2023-12-20T01:45:57;3.38;;;1.45;;
66485;SDS011;53303;47.476;8.084;2023-12-20T01:48:23;3.80;;;1.38;;
66485;SDS011;53303;47.476;8.084;2023-12-20T01:50:49;4.00;;;1.40;;
66485;SDS011;53303;47.476;8.084;2023-12-20T01:53:19;2.45;;;1.10;;
66485;SDS011;53303;47.476;8.084;2023-12-20T01:55:46;5.10;;;1.35;;
66485;SDS011;53303;47.476;8.084;2023-12-20T01:58:13;3.95;;;1.50;;
66485;SDS011;53303;47.476;8.084;2023-12-20T02:00:39;4.03;;;1.33;;
66485;SDS011;53303;47.476;8.084;2023-12-20T02:03:05;4.70;;;1.48;;
66485;SDS011;53303;47.476;8.084;2023-12-20T02:05:34;3.65;;;1.30;;
66485;SDS011;53303;47.476;8.084;2023-12-20T02:08:00;3.35;;;1.30;;
66485;SDS011;53303;47.476;8.084;2023-12-20T02:10:25;3.95;;;1.50;;
66485;SDS011;53303;47.476;8.084;2023-12-20T02:12:52;3.20;;;1.30;;
66485;SDS011;53303;47.476;8.084;2023-12-20T02:15:17;4.13;;;1.30;;
66485;SDS011;53303;47.476;8.084;2023-12-20T02:17:43;4.38;;;1.63;;
66485;SDS011;53303;47.476;8.084;2023-12-20T02:20:09;4.25;;;1.65;;
66485;SDS011;53303;47.476;8.084;2023-12-20T02:22:34;4.97;;;1.50;;
66485;SDS011;53303;47.476;8.084;2023-12-20T02:25:00;5.47;;;1.60;;
66485;SDS011;53303;47.476;8.084;2023-12-20T02:27:25;5.03;;;1.42;;
66485;SDS011;53303;47.476;8.084;2023-12-20T02:29:52;4.38;;;1.65;;
66485;SDS011;53303;47.476;8.084;2023-12-20T02:32:18;3.28;;;1.13;;
66485;SDS011;53303;47.476;8.084;2023-12-20T02:34:45;5.93;;;1.40;;
66485;SDS011;53303;47.476;8.084;2023-12-20T02:37:12;8.73;;;1.70;;
66485;SDS011;53303;47.476;8.084;2023-12-20T02:39:38;3.95;;;1.38;;
66485;SDS011;53303;47.476;8.084;2023-12-20T02:42:03;4.70;;;1.35;;
66485;SDS011;53303;47.476;8.084;2023-12-20T02:44:28;7.05;;;1.63;;
66485;SDS011;53303;47.476;8.084;2023-12-20T02:46:54;3.00;;;1.15;;
66485;SDS011;53303;47.476;8.084;2023-12-20T02:49:19;3.33;;;1.50;;
66485;SDS011;53303;47.476;8.084;2023-12-20T02:51:47;4.22;;;1.38;;
66485;SDS011;53303;47.476;8.084;2023-12-20T02:54:13;3.88;;;1.23;;
66485;SDS011;53303;47.476;8.084;2023-12-20T02:56:38;5.43;;;1.15;;
66485;SDS011;53303;47.476;8.084;2023-12-20T02:59:06;5.07;;;1.35;;
66485;SDS011;53303;47.476;8.084;2023-12-20T03:01:33;4.70;;;1.23;;
66485;SDS011;53303;47.476;8.084;2023-12-20T03:03:59;4.32;;;1.02;;
66485;SDS011;53303;47.476;8.084;2023-12-20T03:06:24;3.78;;;1.42;;
66485;SDS011;53303;47.476;8.084;2023-12-20T03:08:52;5.93;;;1.50;;
66485;SDS011;53303;47.476;8.084;2023-12-20T03:11:17;3.42;;;1.10;;
66485;SDS011;53303;47.476;8.084;2023-12-20T03:13:45;3.80;;;1.10;;
66485;SDS011;53303;47.476;8.084;2023-12-20T03:16:11;3.78;;;1.13;;
66485;SDS011;53303;47.476;8.084;2023-12-20T03:18:37;4.22;;;1.38;;
66485;SDS011;53303;47.476;8.084;2023-12-20T03:21:06;2.97;;;1.20;;
66485;SDS011;53303;47.476;8.084;2023-12-20T03:23:31;2.47;;;0.90;;
66485;SDS011;53303;47.476;8.084;2023-12-20T03:26:00;4.07;;;1.10;;
66485;SDS011;53303;47.476;8.084;2023-12-20T03:28:29;3.25;;;1.27;;
66485;SDS011;53303;47.476;8.084;2023-12-20T03:30:54;3.22;;;1.40;;
66485;SDS011;53303;47.476;8.084;2023-12-20T03:33:20;2.75;;;1.13;;
66485;SDS011;53303;47.476;8.084;2023-12-20T03:35:45;2.60;;;0.93;;
66485;SDS011;53303;47.476;8.084;2023-12-20T03:38:10;4.40;;;1.10;;
66485;SDS011;53303;47.476;8.084;2023-12-20T03:40:36;4.40;;;1.42;;
66485;SDS011;53303;47.476;8.084;2023-12-20T03:43:01;2.63;;;1.13;;
66485;SDS011;53303;47.476;8.084;2023-12-20T03:45:29;3.90;;;1.02;;
66485;SDS011;53303;47.476;8.084;2023-12-20T03:47:54;4.55;;;1.15;;
66485;SDS011;53303;47.476;8.084;2023-12-20T03:50:27;2.72;;;0.98;;
66485;SDS011;53303;47.476;8.084;2023-12-20T03:52:56;2.70;;;1.02;;
66485;SDS011;53303;47.476;8.084;2023-12-20T03:55:24;4.72;;;1.30;;
66485;SDS011;53303;47.476;8.084;2023-12-20T03:57:49;3.65;;;1.45;;
66485;SDS011;53303;47.476;8.084;2023-12-20T04:00:15;3.10;;;1.17;;
66485;SDS011;53303;47.476;8.084;2023-12-20T04:02:42;3.78;;;1.27;;
66485;SDS011;53303;47.476;8.084;2023-12-20T04:05:08;2.05;;;1.30;;
66485;SDS011;53303;47.476;8.084;2023-12-20T04:07:35;3.63;;;1.42;;
66485;SDS011;53303;47.476;8.084;2023-12-20T04:10:00;3.35;;;1.13;;
66485;SDS011;53303;47.476;8.084;2023-12-20T04:12:27;2.72;;;1.40;;
66485;SDS011;53303;47.476;8.084;2023-12-20T04:14:53;3.55;;;1.10;;
66485;SDS011;53303;47.476;8.084;2023-12-20T04:17:18;3.53;;;1.20;;
66485;SDS011;53303;47.476;8.084;2023-12-20T04:19:45;4.30;;;1.20;;
66485;SDS011;53303;47.476;8.084;2023-12-20T04:22:10;2.08;;;0.90;;
66485;SDS011;53303;47.476;8.084;2023-12-20T04:24:35;2.92;;;1.00;;
66485;SDS011;53303;47.476;8.084;2023-12-20T04:27:01;3.40;;;1.02;;
66485;SDS011;53303;47.476;8.084;2023-12-20T04:29:27;3.22;;;0.90;;
66485;SDS011;53303;47.476;8.084;2023-12-20T04:31:52;3.05;;;0.90;;
66485;SDS011;53303;47.476;8.084;2023-12-20T04:34:18;2.97;;;1.00;;
66485;SDS011;53303;47.476;8.084;2023-12-20T04:36:43;2.55;;;1.10;;
66485;SDS011;53303;47.476;8.084;2023-12-20T04:39:09;3.13;;;0.93;;
66485;SDS011;53303;47.476;8.084;2023-12-20T04:41:35;4.50;;;1.30;;
66485;SDS011;53303;47.476;8.084;2023-12-20T04:44:00;2.67;;;0.98;;
66485;SDS011;53303;47.476;8.084;2023-12-20T04:46:26;3.75;;;1.20;;
66485;SDS011;53303;47.476;8.084;2023-12-20T04:48:51;3.35;;;1.30;;
66485;SDS011;53303;47.476;8.084;2023-12-20T04:51:17;2.50;;;1.02;;
66485;SDS011;53303;47.476;8.084;2023-12-20T04:53:42;3.10;;;1.15;;
66485;SDS011;53303;47.476;8.084;2023-12-20T04:56:10;2.92;;;1.30;;
66485;SDS011;53303;47.476;8.084;2023-12-20T04:58:35;2.53;;;1.02;;
66485;SDS011;53303;47.476;8.084;2023-12-20T05:01:03;4.03;;;1.20;;
66485;SDS011;53303;47.476;8.084;2023-12-20T05:03:30;4.47;;;1.27;;
66485;SDS011;53303;47.476;8.084;2023-12-20T05:05:58;4.93;;;0.90;;
66485;SDS011;53303;47.476;8.084;2023-12-20T05:08:24;4.50;;;1.13;;
66485;SDS011;53303;47.476;8.084;2023-12-20T05:10:53;7.18;;;1.35;;
66485;SDS011;53303;47.476;8.084;2023-12-20T05:13:19;5.00;;;1.00;;
66485;SDS011;53303;47.476;8.084;2023-12-20T05:15:45;4.53;;;1.25;;
66485;SDS011;53303;47.476;8.084;2023-12-20T05:18:10;6.60;;;1.02;;
66485;SDS011;53303;47.476;8.084;2023-12-20T05:20:36;3.58;;;0.80;;
66485;SDS011;53303;47.476;8.084;2023-12-20T05:23:03;3.97;;;0.88;;
66485;SDS011;53303;47.476;8.084;2023-12-20T05:25:28;4.63;;;0.90;;
66485;SDS011;53303;47.476;8.084;2023-12-20T05:27:57;1.52;;;0.73;;
66485;SDS011;53303;47.476;8.084;2023-12-20T05:30:22;5.35;;;1.08;;
66485;SDS011;53303;47.476;8.084;2023-12-20T05:32:47;3.67;;;1.10;;
66485;SDS011;53303;47.476;8.084;2023-12-20T05:35:13;3.42;;;0.93;;
66485;SDS011;53303;47.476;8.084;2023-12-20T05:37:41;2.97;;;0.93;;
66485;SDS011;53303;47.476;8.084;2023-12-20T05:40:07;3.55;;;0.88;;
66485;SDS011;53303;47.476;8.084;2023-12-20T05:42:36;3.50;;;0.80;;
66485;SDS011;53303;47.476;8.084;2023-12-20T05:45:02;3.58;;;0.90;;
66485;SDS011;53303;47.476;8.084;2023-12-20T05:47:28;3.28;;;0.73;;
66485;SDS011;53303;47.476;8.084;2023-12-20T05:49:59;3.38;;;0.98;;
66485;SDS011;53303;47.476;8.084;2023-12-20T05:52:24;3.58;;;0.93;;
66485;SDS011;53303;47.476;8.084;2023-12-20T05:54:50;3.13;;;1.00;;
66485;SDS011;53303;47.476;8.084;2023-12-20T05:57:17;3.92;;;0.70;;
66485;SDS011;53303;47.476;8.084;2023-12-20T05:59:43;3.83;;;1.10;;
66485;SDS011;53303;47.476;8.084;2023-12-20T06:02:08;2.90;;;0.73;;
66485;SDS011;53303;47.476;8.084;2023-12-20T06:04:33;1.38;;;0.50;;
66485;SDS011;53303;47.476;8.084;2023-12-20T06:06:59;4.72;;;1.17;;
66485;SDS011;53303;47.476;8.084;2023-12-20T06:09:24;6.57;;;0.80;;
66485;SDS011;53303;47.476;8.084;2023-12-20T06:11:51;4.22;;;1.02;;
66485;SDS011;53303;47.476;8.084;2023-12-20T06:14:19;2.97;;;0.82;;
66485;SDS011;53303;47.476;8.084;2023-12-20T06:16:45;3.88;;;1.02;;
66485;SDS011;53303;47.476;8.084;2023-12-20T06:19:10;2.03;;;0.90;;
66485;SDS011;53303;47.476;8.084;2023-12-20T06:21:38;1.80;;;0.63;;
66485;SDS011;53303;47.476;8.084;2023-12-20T06:24:04;3.75;;;1.08;;
66485;SDS011;53303;47.476;8.084;2023-12-20T06:26:34;5.40;;;0.95;;
66485;SDS011;53303;47.476;8.084;2023-12-20T06:29:00;2.42;;;0.90;;
66485;SDS011;53303;47.476;8.084;2023-12-20T06:31:25;4.45;;;1.00;;
66485;SDS011;53303;47.476;8.084;2023-12-20T06:33:50;4.80;;;0.80;;
66485;SDS011;53303;47.476;8.084;2023-12-20T06:36:22;1.83;;;0.70;;
66485;SDS011;53303;47.476;8.084;2023-12-20T06:38:48;3.95;;;1.05;;
66485;SDS011;53303;47.476;8.084;2023-12-20T06:41:13;2.67;;;0.73;;
66485;SDS011;53303;47.476;8.084;2023-12-20T06:43:44;2.30;;;0.82;;
66485;SDS011;53303;47.476;8.084;2023-12-20T06:46:11;2.88;;;0.93;;
66485;SDS011;53303;47.476;8.084;2023-12-20T06:48:39;3.63;;;0.77;;
66485;SDS011;53303;47.476;8.084;2023-12-20T06:51:05;3.28;;;0.85;;
66485;SDS011;53303;47.476;8.084;2023-12-20T06:53:31;2.40;;;0.70;;
66485;SDS011;53303;47.476;8.084;2023-12-20T06:55:58;1.65;;;0.70;;
66485;SDS011;53303;47.476;8.084;2023-12-20T06:58:24;3.90;;;0.70;;
66485;SDS011;53303;47.476;8.084;2023-12-20T07:00:50;2.05;;;0.80;;
66485;SDS011;53303;47.476;8.084;2023-12-20T07:03:16;2.03;;;0.70;;
66485;SDS011;53303;47.476;8.084;2023-12-20T07:05:44;0.93;;;0.80;;
66485;SDS011;53303;47.476;8.084;2023-12-20T07:08:11;1.45;;;0.50;;
66485;SDS011;53303;47.476;8.084;2023-12-20T07:10:40;2.05;;;0.75;;
66485;SDS011;53303;47.476;8.084;2023-12-20T07:13:10;3.80;;;0.85;;
66485;SDS011;53303;47.476;8.084;2023-12-20T07:15:37;3.25;;;1.02;;
66485;SDS011;53303;47.476;8.084;2023-12-20T07:18:02;2.72;;;1.27;;
66485;SDS011;53303;47.476;8.084;2023-12-20T07:20:28;3.65;;;0.80;;
66485;SDS011;53303;47.476;8.084;2023-12-20T07:22:55;3.92;;;0.93;;
66485;SDS011;53303;47.476;8.084;2023-12-20T07:25:21;3.28;;;0.80;;
66485;SDS011;53303;47.476;8.084;2023-12-20T07:27:46;1.92;;;0.70;;
66485;SDS011;53303;47.476;8.084;2023-12-20T07:30:11;2.72;;;0.63;;
66485;SDS011;53303;47.476;8.084;2023-12-20T07:32:37;3.42;;;0.60;;
66485;SDS011;53303;47.476;8.084;2023-12-20T07:35:03;4.55;;;1.13;;
66485;SDS011;53303;47.476;8.084;2023-12-20T07:37:28;6.90;;;0.90;;
66485;SDS011;53303;47.476;8.084;2023-12-20T07:39:54;2.00;;;0.60;;
66485;SDS011;53303;47.476;8.084;2023-12-20T07:42:21;2.08;;;0.90;;
66485;SDS011;53303;47.476;8.084;2023-12-20T07:44:47;2.90;;;0.80;;
66485;SDS011;53303;47.476;8.084;2023-12-20T07:47:12;3.95;;;0.90;;
66485;SDS011;53303;47.476;8.084;2023-12-20T07:49:41;5.20;;;0.90;;
66485;SDS011;53303;47.476;8.084;2023-12-20T07:52:07;2.72;;;0.90;;
66485;SDS011;53303;47.476;8.084;2023-12-20T07:54:33;2.50;;;0.70;;
66485;SDS011;53303;47.476;8.084;2023-12-20T07:56:58;1.73;;;0.85;;
66485;SDS011;53303;47.476;8.084;2023-12-20T07:59:28;2.78;;;0.90;;
66485;SDS011;53303;47.476;8.084;2023-12-20T08:01:54;2.75;;;0.70;;
66485;SDS011;53303;47.476;8.084;2023-12-20T08:04:21;2.28;;;0.90;;
66485;SDS011;53303;47.476;8.084;2023-12-20T08:06:47;2.75;;;0.52;;
66485;SDS011;53303;47.476;8.084;2023-12-20T08:09:12;2.80;;;0.82;;
66485;SDS011;53303;47.476;8.084;2023-12-20T08:11:44;2.65;;;0.88;;
66485;SDS011;53303;47.476;8.084;2023-12-20T08:14:15;1.40;;;0.50;;
66485;SDS011;53303;47.476;8.084;2023-12-20T08:16:43;2.25;;;0.95;;
66485;SDS011;53303;47.476;8.084;2023-12-20T08:19:08;2.70;;;1.00;;
66485;SDS011;53303;47.476;8.084;2023-12-20T08:21:34;2.00;;;0.88;;
66485;SDS011;53303;47.476;8.084;2023-12-20T08:24:02;2.88;;;0.80;;
66485;SDS011;53303;47.476;8.084;2023-12-20T08:26:28;1.13;;;0.80;;
66485;SDS011;53303;47.476;8.084;2023-12-20T08:28:53;1.90;;;0.63;;
66485;SDS011;53303;47.476;8.084;2023-12-20T08:31:21;2.17;;;0.88;;
66485;SDS011;53303;47.476;8.084;2023-12-20T08:33:47;1.73;;;0.52;;
66485;SDS011;53303;47.476;8.084;2023-12-20T08:36:13;1.17;;;0.57;;
66485;SDS011;53303;47.476;8.084;2023-12-20T08:38:39;1.85;;;0.55;;
66485;SDS011;53303;47.476;8.084;2023-12-20T08:41:06;1.50;;;0.60;;
66485;SDS011;53303;47.476;8.084;2023-12-20T08:43:34;2.30;;;0.60;;
66485;SDS011;53303;47.476;8.084;2023-12-20T08:46:00;2.55;;;0.68;;
66485;SDS011;53303;47.476;8.084;2023-12-20T08:48:26;2.92;;;0.65;;
66485;SDS011;53303;47.476;8.084;2023-12-20T08:50:51;0.68;;;0.52;;
66485;SDS011;53303;47.476;8.084;2023-12-20T08:53:17;2.72;;;0.60;;
66485;SDS011;53303;47.476;8.084;2023-12-20T08:55:46;1.20;;;0.75;;
66485;SDS011;53303;47.476;8.084;2023-12-20T08:58:12;1.00;;;0.50;;
66485;SDS011;53303;47.476;8.084;2023-12-20T09:00:37;1.17;;;0.50;;
66485;SDS011;53303;47.476;8.084;2023-12-20T09:03:05;1.58;;;0.50;;
66485;SDS011;53303;47.476;8.084;2023-12-20T09:05:31;3.03;;;0.90;;
66485;SDS011;53303;47.476;8.084;2023-12-20T09:07:56;1.52;;;0.55;;
66485;SDS011;53303;47.476;8.084;2023-12-20T09:10:22;1.00;;;0.43;;
66485;SDS011;53303;47.476;8.084;2023-12-20T09:12:51;1.88;;;0.70;;
66485;SDS011;53303;47.476;8.084;2023-12-20T09:15:21;2.00;;;0.70;;
66485;SDS011;53303;47.476;8.084;2023-12-20T09:17:48;1.15;;;0.73;;
66485;SDS011;53303;47.476;8.084;2023-12-20T09:20:13;1.45;;;0.50;;
66485;SDS011;53303;47.476;8.084;2023-12-20T09:22:41;1.13;;;0.57;;
66485;SDS011;53303;47.476;8.084;2023-12-20T09:25:07;1.30;;;0.60;;
66485;SDS011;53303;47.476;8.084;2023-12-20T09:27:33;1.52;;;0.50;;
66485;SDS011;53303;47.476;8.084;2023-12-20T09:30:01;2.80;;;0.80;;
66485;SDS011;53303;47.476;8.084;2023-12-20T09:32:26;1.35;;;0.80;;
66485;SDS011;53303;47.476;8.084;2023-12-20T09:34:57;2.40;;;0.70;;
66485;SDS011;53303;47.476;8.084;2023-12-20T09:37:22;2.13;;;0.65;;
66485;SDS011;53303;47.476;8.084;2023-12-20T09:39:50;2.08;;;0.70;;
66485;SDS011;53303;47.476;8.084;2023-12-20T09:42:17;1.48;;;0.60;;
66485;SDS011;53303;47.476;8.084;2023-12-20T09:44:52;1.77;;;0.50;;
66485;SDS011;53303;47.476;8.084;2023-12-20T09:47:20;1.27;;;0.50;;
66485;SDS011;53303;47.476;8.084;2023-12-20T09:49:49;2.10;;;0.68;;
66485;SDS011;53303;47.476;8.084;2023-12-20T09:52:15;2.80;;;0.60;;
66485;SDS011;53303;47.476;8.084;2023-12-20T09:54:45;0.90;;;0.52;;
66485;SDS011;53303;47.476;8.084;2023-12-20T09:57:14;1.30;;;0.52;;
66485;SDS011;53303;47.476;8.084;2023-12-20T09:59:40;1.38;;;0.70;;
66485;SDS011;53303;47.476;8.084;2023-12-20T10:02:06;2.13;;;0.93;;
66485;SDS011;53303;47.476;8.084;2023-12-20T10:04:39;2.17;;;0.70;;
66485;SDS011;53303;47.476;8.084;2023-12-20T10:07:15;1.67;;;0.60;;
66485;SDS011;53303;47.476;8.084;2023-12-20T10:09:40;1.85;;;0.70;;
66485;SDS011;53303;47.476;8.084;2023-12-20T10:12:07;1.58;;;0.80;;
66485;SDS011;53303;47.476;8.084;2023-12-20T10:14:32;1.55;;;0.73;;
66485;SDS011;53303;47.476;8.084;2023-12-20T10:17:02;0.98;;;0.50;;
66485;SDS011;53303;47.476;8.084;2023-12-20T10:19:28;1.98;;;0.60;;
66485;SDS011;53303;47.476;8.084;2023-12-20T10:21:54;2.33;;;1.00;;
66485;SDS011;53303;47.476;8.084;2023-12-20T10:24:19;1.85;;;0.70;;
66485;SDS011;53303;47.476;8.084;2023-12-20T10:26:45;2.25;;;0.80;;
66485;SDS011;53303;47.476;8.084;2023-12-20T10:29:11;2.25;;;0.77;;
66485;SDS011;53303;47.476;8.084;2023-12-20T10:31:36;3.03;;;0.90;;
66485;SDS011;53303;47.476;8.084;2023-12-20T10:34:06;1.15;;;0.50;;
66485;SDS011;53303;47.476;8.084;2023-12-20T10:36:32;2.00;;;0.63;;
66485;SDS011;53303;47.476;8.084;2023-12-20T10:38:58;1.23;;;0.60;;
66485;SDS011;53303;47.476;8.084;2023-12-20T10:43:51;2.20;;;0.95;;
66485;SDS011;53303;47.476;8.084;2023-12-20T10:46:19;1.73;;;0.70;;
66485;SDS011;53303;47.476;8.084;2023-12-20T10:48:45;1.38;;;0.50;;
66485;SDS011;53303;47.476;8.084;2023-12-20T10:51:11;2.17;;;0.90;;
66485;SDS011;53303;47.476;8.084;2023-12-20T10:53:45;1.55;;;0.60;;
66485;SDS011;53303;47.476;8.084;2023-12-20T10:56:15;1.60;;;0.60;;
66485;SDS011;53303;47.476;8.084;2023-12-20T10:58:45;1.27;;;0.63;;
66485;SDS011;53303;47.476;8.084;2023-12-20T11:01:15;1.35;;;0.70;;
66485;SDS011;53303;47.476;8.084;2023-12-20T11:03:51;1.60;;;0.80;;
66485;SDS011;53303;47.476;8.084;2023-12-20T11:06:33;1.70;;;0.73;;
66485;SDS011;53303;47.476;8.084;2023-12-20T11:09:25;2.08;;;0.90;;
66485;SDS011;53303;47.476;8.084;2023-12-20T11:17:13;1.52;;;0.80;;
66485;SDS011;53303;47.476;8.084;2023-12-20T11:22:22;1.40;;;0.50;;
66485;SDS011;53303;47.476;8.084;2023-12-20T11:25:07;2.80;;;0.90;;
66485;SDS011;53303;47.476;8.084;2023-12-20T11:27:36;2.08;;;0.52;;
66485;SDS011;53303;47.476;8.084;2023-12-20T11:30:08;1.25;;;0.77;;
66485;SDS011;53303;47.476;8.084;2023-12-20T11:32:35;0.52;;;0.38;;
66485;SDS011;53303;47.476;8.084;2023-12-20T11:35:22;2.03;;;0.80;;
66485;SDS011;53303;47.476;8.084;2023-12-20T11:37:48;1.50;;;0.70;;
66485;SDS011;53303;47.476;8.084;2023-12-20T11:40:16;1.45;;;0.77;;
66485;SDS011;53303;47.476;8.084;2023-12-20T11:42:50;1.08;;;0.60;;
66485;SDS011;53303;47.476;8.084;2023-12-20T11:45:20;2.47;;;0.93;;
66485;SDS011;53303;47.476;8.084;2023-12-20T11:47:50;1.70;;;0.80;;
66485;SDS011;53303;47.476;8.084;2023-12-20T11:50:17;1.40;;;0.75;;
66485;SDS011;53303;47.476;8.084;2023-12-20T11:52:43;1.85;;;0.80;;
66485;SDS011;53303;47.476;8.084;2023-12-20T11:55:11;1.45;;;0.52;;
66485;SDS011;53303;47.476;8.084;2023-12-20T11:57:37;1.02;;;0.60;;
66485;SDS011;53303;47.476;8.084;2023-12-20T12:00:05;2.42;;;0.70;;
66485;SDS011;53303;47.476;8.084;2023-12-20T12:02:33;1.33;;;0.70;;
66485;SDS011;53303;47.476;8.084;2023-12-20T12:04:59;1.55;;;0.50;;
66485;SDS011;53303;47.476;8.084;2023-12-20T12:07:24;1.10;;;0.52;;
66485;SDS011;53303;47.476;8.084;2023-12-20T12:09:50;3.50;;;0.68;;
66485;SDS011;53303;47.476;8.084;2023-12-20T12:12:16;1.02;;;0.88;;
66485;SDS011;53303;47.476;8.084;2023-12-20T12:14:45;1.60;;;0.52;;
66485;SDS011;53303;47.476;8.084;2023-12-20T12:17:11;0.70;;;0.45;;
66485;SDS011;53303;47.476;8.084;2023-12-20T12:19:41;1.08;;;0.70;;
66485;SDS011;53303;47.476;8.084;2023-12-20T12:22:07;0.68;;;0.50;;
66485;SDS011;53303;47.476;8.084;2023-12-20T12:24:39;2.10;;;0.60;;
66485;SDS011;53303;47.476;8.084;2023-12-20T12:27:14;1.92;;;0.90;;
66485;SDS011;53303;47.476;8.084;2023-12-20T12:29:59;1.52;;;0.82;;
66485;SDS011;53303;47.476;8.084;2023-12-20T12:32:27;1.20;;;0.43;;
66485;SDS011;53303;47.476;8.084;2023-12-20T12:34:53;1.02;;;0.60;;
66485;SDS011;53303;47.476;8.084;2023-12-20T12:37:18;2.08;;;0.50;;
66485;SDS011;53303;47.476;8.084;2023-12-20T12:39:43;1.10;;;0.60;;
66485;SDS011;53303;47.476;8.084;2023-12-20T12:42:11;1.42;;;0.60;;
66485;SDS011;53303;47.476;8.084;2023-12-20T12:44:36;0.82;;;0.45;;
66485;SDS011;53303;47.476;8.084;2023-12-20T12:47:02;2.03;;;0.45;;
66485;SDS011;53303;47.476;8.084;2023-12-20T12:49:28;1.65;;;0.50;;
66485;SDS011;53303;47.476;8.084;2023-12-20T12:51:54;2.60;;;0.80;;
66485;SDS011;53303;47.476;8.084;2023-12-20T12:54:23;1.83;;;0.70;;
66485;SDS011;53303;47.476;8.084;2023-12-20T12:56:49;2.03;;;0.70;;
66485;SDS011;53303;47.476;8.084;2023-12-20T12:59:15;1.35;;;0.52;;
66485;SDS011;53303;47.476;8.084;2023-12-20T13:01:41;9.55;;;1.00;;
66485;SDS011;53303;47.476;8.084;2023-12-20T13:04:06;1.08;;;0.63;;
66485;SDS011;53303;47.476;8.084;2023-12-20T13:06:35;0.98;;;0.55;;
66485;SDS011;53303;47.476;8.084;2023-12-20T13:09:02;3.38;;;0.90;;
66485;SDS011;53303;47.476;8.084;2023-12-20T13:11:29;1.27;;;0.73;;
66485;SDS011;53303;47.476;8.084;2023-12-20T13:13:56;1.60;;;0.75;;
66485;SDS011;53303;47.476;8.084;2023-12-20T13:16:24;3.25;;;0.80;;
66485;SDS011;53303;47.476;8.084;2023-12-20T13:18:49;2.15;;;0.50;;
66485;SDS011;53303;47.476;8.084;2023-12-20T13:21:15;1.25;;;0.82;;
66485;SDS011;53303;47.476;8.084;2023-12-20T13:23:43;1.60;;;0.80;;
66485;SDS011;53303;47.476;8.084;2023-12-20T13:26:08;4.10;;;1.00;;
66485;SDS011;53303;47.476;8.084;2023-12-20T13:28:36;1.48;;;0.75;;
66485;SDS011;53303;47.476;8.084;2023-12-20T13:31:01;0.90;;;0.65;;
66485;SDS011;53303;47.476;8.084;2023-12-20T13:33:30;2.83;;;1.02;;
66485;SDS011;53303;47.476;8.084;2023-12-20T13:35:55;1.05;;;0.45;;
66485;SDS011;53303;47.476;8.084;2023-12-20T13:38:23;1.33;;;0.80;;
66485;SDS011;53303;47.476;8.084;2023-12-20T13:40:48;1.50;;;0.43;;
66485;SDS011;53303;47.476;8.084;2023-12-20T13:43:16;0.73;;;0.60;;
66485;SDS011;53303;47.476;8.084;2023-12-20T13:45:46;1.85;;;0.82;;
66485;SDS011;53303;47.476;8.084;2023-12-20T13:48:12;2.30;;;0.77;;
66485;SDS011;53303;47.476;8.084;2023-12-20T13:50:37;1.05;;;0.45;;
66485;SDS011;53303;47.476;8.084;2023-12-20T13:53:02;1.45;;;0.60;;
66485;SDS011;53303;47.476;8.084;2023-12-20T13:55:29;2.47;;;0.70;;
66485;SDS011;53303;47.476;8.084;2023-12-20T13:57:55;1.63;;;0.70;;
66485;SDS011;53303;47.476;8.084;2023-12-20T14:00:21;1.45;;;0.77;;
66485;SDS011;53303;47.476;8.084;2023-12-20T14:02:47;0.85;;;0.50;;
66485;SDS011;53303;47.476;8.084;2023-12-20T14:05:16;1.33;;;0.70;;
66485;SDS011;53303;47.476;8.084;2023-12-20T14:07:46;1.65;;;0.45;;
66485;SDS011;53303;47.476;8.084;2023-12-20T14:10:12;2.13;;;0.90;;
66485;SDS011;53303;47.476;8.084;2023-12-20T14:12:41;0.95;;;0.43;;
66485;SDS011;53303;47.476;8.084;2023-12-20T14:15:07;3.13;;;0.90;;
66485;SDS011;53303;47.476;8.084;2023-12-20T14:17:39;1.80;;;0.80;;
66485;SDS011;53303;47.476;8.084;2023-12-20T14:20:08;0.90;;;0.50;;
66485;SDS011;53303;47.476;8.084;2023-12-20T14:22:34;1.55;;;0.60;;
66485;SDS011;53303;47.476;8.084;2023-12-20T14:25:00;2.03;;;0.80;;
66485;SDS011;53303;47.476;8.084;2023-12-20T14:27:29;1.90;;;0.88;;
66485;SDS011;53303;47.476;8.084;2023-12-20T14:29:54;3.88;;;0.68;;
66485;SDS011;53303;47.476;8.084;2023-12-20T14:32:20;1.45;;;0.50;;
66485;SDS011;53303;47.476;8.084;2023-12-20T14:34:48;1.95;;;0.50;;
66485;SDS011;53303;47.476;8.084;2023-12-20T14:37:13;2.55;;;0.60;;
66485;SDS011;53303;47.476;8.084;2023-12-20T14:39:39;0.55;;;0.50;;
66485;SDS011;53303;47.476;8.084;2023-12-20T14:42:08;2.05;;;0.60;;
66485;SDS011;53303;47.476;8.084;2023-12-20T14:44:39;3.75;;;0.98;;
66485;SDS011;53303;47.476;8.084;2023-12-20T14:47:06;1.80;;;0.63;;
66485;SDS011;53303;47.476;8.084;2023-12-20T14:49:31;1.52;;;0.68;;
66485;SDS011;53303;47.476;8.084;2023-12-20T14:52:00;0.98;;;0.50;;
66485;SDS011;53303;47.476;8.084;2023-12-20T14:54:27;1.67;;;0.80;;
66485;SDS011;53303;47.476;8.084;2023-12-20T14:56:53;1.85;;;0.95;;